Hlavní strana
METAR-TAF:

METAR-TAF

Letiště :

Mezinárodní letiště Čcheng-tu Šuang-liou

Čcheng-tu, Čína

zeměpisná šířka: 30-40N, zeměpisná délka: 104-01E, výška: 508 m

Aktuální stav počasí

Zpráva byla vytvořena před 31 minutami, v 13:00 UTC
Východoseverovýchodní vítr 6 kt, proměnlivý mezi severoseverovýchodním a východním
Teplota 32°C
Vlhkost vzduchu 49%
Tlak 1008 hPa
Viditelnost 10 km a více
Skoro jasno ve výšce 2600 ft

METAR: ZUUU 171300Z 07003MPS 030V090 9999 FEW026 32/20 Q1008 NOSIG

Čas: 21:31 (13:31 UTC)

Předpověď počasí

Zpráva byla vytvořena před 5 hodinami a 30 minutami, v 08:01 UTC
Předpověď platná od 17 v 12 UTC do 18 v 12 UTC
Severoseverovýchodní vítr 6 kt
Viditelnost: 5000 m
Polojasno ve výšce 5000 ft
kouřmo

TAF: ZUUU 170801Z 1712/1812 02003MPS 5000 BR SCT050 TX34/1807Z TN24/1722Z

Stav a předpovědi počasí z více než 4 000 letišť (zprávy METAR a TAF).

Červené a žluté tečky na mapě představují dostupné meteorologické stanice.

Když kurzor umístíte na tečku, zobrazí se název stanice.

Pak kliknutím zobrazíte stav a předpověď počasí.

Chcete-li změnit mapu, kliknutím na zelené tlačítko se znaménkem +mapu přiblížíte, kliknutím na zelené tlačítko se znaménkem – mapu oddálíte a kliknutím na zelené šipky přejdete na sousední mapy.


METAR-TAF: